sensor_id;sensor_type;location;lat;lon;timestamp;pressure;altitude;pressure_sealevel;temperature;humidity
71917;BME280;59793;46.506;6.674;2023-03-18T00:00:41;96890.53;;;10.98;54.39
71917;BME280;59793;46.506;6.674;2023-03-18T00:03:08;96899.09;;;11.11;54.07
71917;BME280;59793;46.506;6.674;2023-03-18T00:05:34;96905.69;;;11.20;54.32
71917;BME280;59793;46.506;6.674;2023-03-18T00:08:00;96894.22;;;10.93;54.73
71917;BME280;59793;46.506;6.674;2023-03-18T00:10:27;96923.94;;;11.10;54.71
71917;BME280;59793;46.506;6.674;2023-03-18T00:12:52;96880.31;;;10.58;55.30
71917;BME280;59793;46.506;6.674;2023-03-18T00:15:19;96927.66;;;10.89;54.83
71917;BME280;59793;46.506;6.674;2023-03-18T00:17:45;96924.47;;;10.99;54.70
71917;BME280;59793;46.506;6.674;2023-03-18T00:20:13;96916.06;;;10.94;54.84
71917;BME280;59793;46.506;6.674;2023-03-18T00:22:41;96913.66;;;10.85;54.96
71917;BME280;59793;46.506;6.674;2023-03-18T00:25:09;96902.59;;;10.80;55.31
71917;BME280;59793;46.506;6.674;2023-03-18T00:27:35;96904.50;;;10.63;55.71
71917;BME280;59793;46.506;6.674;2023-03-18T00:30:01;96900.97;;;10.56;55.47
71917;BME280;59793;46.506;6.674;2023-03-18T00:32:27;96927.00;;;10.76;55.26
71917;BME280;59793;46.506;6.674;2023-03-18T00:34:54;96899.16;;;10.60;55.25
71917;BME280;59793;46.506;6.674;2023-03-18T00:37:21;96929.84;;;10.68;55.31
71917;BME280;59793;46.506;6.674;2023-03-18T00:40:06;96907.03;;;10.40;55.70
71917;BME280;59793;46.506;6.674;2023-03-18T00:42:36;96925.09;;;10.58;55.85
71917;BME280;59793;46.506;6.674;2023-03-18T00:45:09;96921.34;;;10.59;55.77
71917;BME280;59793;46.506;6.674;2023-03-18T00:47:35;96925.69;;;10.51;55.57
71917;BME280;59793;46.506;6.674;2023-03-18T00:50:03;96919.75;;;10.54;55.20
71917;BME280;59793;46.506;6.674;2023-03-18T00:52:30;96910.66;;;10.51;55.69
71917;BME280;59793;46.506;6.674;2023-03-18T00:54:56;96911.41;;;10.52;55.37
71917;BME280;59793;46.506;6.674;2023-03-18T00:57:21;96915.94;;;10.51;54.66
71917;BME280;59793;46.506;6.674;2023-03-18T00:59:48;96914.03;;;10.68;54.56
71917;BME280;59793;46.506;6.674;2023-03-18T01:02:14;96880.31;;;10.58;54.83
71917;BME280;59793;46.506;6.674;2023-03-18T01:04:40;96873.56;;;10.41;54.72
71917;BME280;59793;46.506;6.674;2023-03-18T01:07:05;96876.16;;;10.57;54.12
71917;BME280;59793;46.506;6.674;2023-03-18T01:09:32;96900.25;;;10.74;54.11
71917;BME280;59793;46.506;6.674;2023-03-18T01:11:58;96896.72;;;10.86;53.63
71917;BME280;59793;46.506;6.674;2023-03-18T01:14:23;96877.56;;;10.89;53.54
71917;BME280;59793;46.506;6.674;2023-03-18T01:16:49;96879.38;;;10.85;53.46
71917;BME280;59793;46.506;6.674;2023-03-18T01:19:14;96898.03;;;10.96;53.87
71917;BME280;59793;46.506;6.674;2023-03-18T01:21:40;96881.03;;;10.93;53.84
71917;BME280;59793;46.506;6.674;2023-03-18T01:24:06;96897.13;;;11.08;53.21
71917;BME280;59793;46.506;6.674;2023-03-18T01:26:31;96896.03;;;11.09;53.11
71917;BME280;59793;46.506;6.674;2023-03-18T01:28:57;96862.56;;;10.74;53.97
71917;BME280;59793;46.506;6.674;2023-03-18T01:31:23;96865.63;;;10.57;54.55
71917;BME280;59793;46.506;6.674;2023-03-18T01:33:50;96847.56;;;10.39;55.24
71917;BME280;59793;46.506;6.674;2023-03-18T01:36:16;96865.59;;;10.05;56.22
71917;BME280;59793;46.506;6.674;2023-03-18T01:38:42;96870.97;;;9.93;56.54
71917;BME280;59793;46.506;6.674;2023-03-18T01:41:08;96885.38;;;9.99;56.84
71917;BME280;59793;46.506;6.674;2023-03-18T01:43:36;96872.47;;;9.94;57.39
71917;BME280;59793;46.506;6.674;2023-03-18T01:48:50;96867.47;;;10.05;56.45
71917;BME280;59793;46.506;6.674;2023-03-18T01:51:17;96843.00;;;10.04;56.73
71917;BME280;59793;46.506;6.674;2023-03-18T01:53:47;96866.19;;;10.15;56.67
71917;BME280;59793;46.506;6.674;2023-03-18T01:56:14;96862.28;;;10.09;56.80
71917;BME280;59793;46.506;6.674;2023-03-18T01:58:45;96861.44;;;10.04;56.37
71917;BME280;59793;46.506;6.674;2023-03-18T02:01:17;96841.81;;;10.02;56.13
71917;BME280;59793;46.506;6.674;2023-03-18T02:03:44;96864.41;;;10.03;56.23
71917;BME280;59793;46.506;6.674;2023-03-18T02:06:11;96835.56;;;9.91;56.01
71917;BME280;59793;46.506;6.674;2023-03-18T02:08:38;96848.53;;;9.99;55.99
71917;BME280;59793;46.506;6.674;2023-03-18T02:11:05;96862.34;;;9.96;56.38
71917;BME280;59793;46.506;6.674;2023-03-18T02:13:33;96866.28;;;9.87;56.65
71917;BME280;59793;46.506;6.674;2023-03-18T02:16:10;96840.41;;;9.73;56.62
71917;BME280;59793;46.506;6.674;2023-03-18T02:18:44;96861.88;;;9.91;56.17
71917;BME280;59793;46.506;6.674;2023-03-18T02:21:25;96862.47;;;9.84;56.57
71917;BME280;59793;46.506;6.674;2023-03-18T02:24:18;96860.84;;;9.95;56.11
71917;BME280;59793;46.506;6.674;2023-03-18T02:29:13;96852.88;;;9.92;56.10
71917;BME280;59793;46.506;6.674;2023-03-18T02:31:41;96865.84;;;10.00;56.09
71917;BME280;59793;46.506;6.674;2023-03-18T02:34:08;96852.25;;;9.98;55.67
71917;BME280;59793;46.506;6.674;2023-03-18T02:36:35;96830.22;;;9.87;55.94
71917;BME280;59793;46.506;6.674;2023-03-18T02:39:00;96842.78;;;9.94;55.67
71917;BME280;59793;46.506;6.674;2023-03-18T02:41:29;96852.25;;;9.98;55.54
71917;BME280;59793;46.506;6.674;2023-03-18T02:43:56;96857.34;;;10.23;54.94
71917;BME280;59793;46.506;6.674;2023-03-18T02:49:11;96825.59;;;10.16;54.28
71917;BME280;59793;46.506;6.674;2023-03-18T02:51:37;96856.47;;;10.35;54.79
71917;BME280;59793;46.506;6.674;2023-03-18T02:54:10;96848.44;;;10.12;54.88
71917;BME280;59793;46.506;6.674;2023-03-18T02:56:40;96861.09;;;10.22;54.87
71917;BME280;59793;46.506;6.674;2023-03-18T02:59:06;96863.28;;;10.20;54.52
71917;BME280;59793;46.506;6.674;2023-03-18T03:01:33;96860.31;;;10.21;55.68
71917;BME280;59793;46.506;6.674;2023-03-18T03:03:59;96862.94;;;10.21;56.87
71917;BME280;59793;46.506;6.674;2023-03-18T03:06:25;96843.84;;;10.09;57.27
71917;BME280;59793;46.506;6.674;2023-03-18T03:08:51;96870.50;;;10.23;57.67
71917;BME280;59793;46.506;6.674;2023-03-18T03:11:18;96874.75;;;10.27;57.63
71917;BME280;59793;46.506;6.674;2023-03-18T03:13:43;96879.84;;;10.20;57.91
71917;BME280;59793;46.506;6.674;2023-03-18T03:16:14;96872.97;;;10.16;57.63
71917;BME280;59793;46.506;6.674;2023-03-18T03:18:41;96879.59;;;10.10;57.29
71917;BME280;59793;46.506;6.674;2023-03-18T03:21:07;96871.53;;;10.02;57.35
71917;BME280;59793;46.506;6.674;2023-03-18T03:23:33;96887.59;;;9.97;57.56
71917;BME280;59793;46.506;6.674;2023-03-18T03:26:01;96890.47;;;9.92;57.88
71917;BME280;59793;46.506;6.674;2023-03-18T03:28:27;96849.41;;;9.72;58.12
71917;BME280;59793;46.506;6.674;2023-03-18T03:30:53;96838.09;;;9.71;58.18
71917;BME280;59793;46.506;6.674;2023-03-18T03:33:18;96847.50;;;9.88;57.92
71917;BME280;59793;46.506;6.674;2023-03-18T03:35:44;96841.75;;;9.67;58.59
71917;BME280;59793;46.506;6.674;2023-03-18T03:38:10;96882.00;;;9.83;58.67
71917;BME280;59793;46.506;6.674;2023-03-18T03:40:36;96869.59;;;9.84;58.67
71917;BME280;59793;46.506;6.674;2023-03-18T03:43:03;96859.13;;;9.71;59.53
71917;BME280;59793;46.506;6.674;2023-03-18T03:45:28;96872.28;;;9.55;59.79
71917;BME280;59793;46.506;6.674;2023-03-18T03:47:54;96883.47;;;9.52;59.54
71917;BME280;59793;46.506;6.674;2023-03-18T03:50:19;96867.34;;;9.38;59.73
71917;BME280;59793;46.506;6.674;2023-03-18T03:52:46;96865.81;;;9.37;59.90
71917;BME280;59793;46.506;6.674;2023-03-18T03:55:14;96845.00;;;9.16;60.35
71917;BME280;59793;46.506;6.674;2023-03-18T03:57:41;96860.38;;;9.30;60.20
71917;BME280;59793;46.506;6.674;2023-03-18T04:00:10;96874.38;;;9.50;60.24
71917;BME280;59793;46.506;6.674;2023-03-18T04:02:41;96866.56;;;9.38;60.45
71917;BME280;59793;46.506;6.674;2023-03-18T04:05:14;96863.72;;;9.15;60.82
71917;BME280;59793;46.506;6.674;2023-03-18T04:07:41;96827.78;;;8.63;61.05
71917;BME280;59793;46.506;6.674;2023-03-18T04:10:08;96863.09;;;8.65;61.53
71917;BME280;59793;46.506;6.674;2023-03-18T04:12:35;96857.97;;;8.69;61.19
71917;BME280;59793;46.506;6.674;2023-03-18T04:15:01;96838.31;;;8.63;60.74
71917;BME280;59793;46.506;6.674;2023-03-18T04:17:27;96867.34;;;8.82;60.74
71917;BME280;59793;46.506;6.674;2023-03-18T04:19:52;96866.06;;;8.64;61.14
71917;BME280;59793;46.506;6.674;2023-03-18T04:22:18;96872.94;;;8.68;60.70
71917;BME280;59793;46.506;6.674;2023-03-18T04:24:44;96875.91;;;8.67;60.83
71917;BME280;59793;46.506;6.674;2023-03-18T04:27:09;96881.59;;;8.69;60.80
71917;BME280;59793;46.506;6.674;2023-03-18T04:29:36;96858.50;;;8.62;60.80
71917;BME280;59793;46.506;6.674;2023-03-18T04:32:01;96881.78;;;8.76;60.58
71917;BME280;59793;46.506;6.674;2023-03-18T04:34:27;96879.28;;;8.79;60.43
71917;BME280;59793;46.506;6.674;2023-03-18T04:36:53;96883.31;;;8.89;59.99
71917;BME280;59793;46.506;6.674;2023-03-18T04:39:20;96872.38;;;8.87;60.10
71917;BME280;59793;46.506;6.674;2023-03-18T04:41:45;96865.84;;;8.69;61.15
71917;BME280;59793;46.506;6.674;2023-03-18T04:44:11;96853.75;;;8.40;61.73
71917;BME280;59793;46.506;6.674;2023-03-18T04:46:37;96836.78;;;8.12;62.33
71917;BME280;59793;46.506;6.674;2023-03-18T04:49:03;96866.28;;;8.58;61.56
71917;BME280;59793;46.506;6.674;2023-03-18T04:51:28;96873.06;;;8.72;61.12
71917;BME280;59793;46.506;6.674;2023-03-18T04:53:54;96869.56;;;8.80;60.43
71917;BME280;59793;46.506;6.674;2023-03-18T04:56:19;96875.66;;;8.84;60.47
71917;BME280;59793;46.506;6.674;2023-03-18T04:58:45;96851.94;;;8.80;59.76
71917;BME280;59793;46.506;6.674;2023-03-18T05:01:11;96865.66;;;8.90;60.04
71917;BME280;59793;46.506;6.674;2023-03-18T05:03:37;96859.91;;;8.84;60.32
71917;BME280;59793;46.506;6.674;2023-03-18T05:06:03;96863.41;;;8.76;60.23
71917;BME280;59793;46.506;6.674;2023-03-18T05:08:29;96853.84;;;8.55;60.20
71917;BME280;59793;46.506;6.674;2023-03-18T05:10:54;96825.13;;;8.10;61.41
71917;BME280;59793;46.506;6.674;2023-03-18T05:13:19;96826.56;;;7.95;61.76
71917;BME280;59793;46.506;6.674;2023-03-18T05:15:45;96864.16;;;8.24;61.62
71917;BME280;59793;46.506;6.674;2023-03-18T05:18:11;96871.13;;;8.32;61.67
71917;BME280;59793;46.506;6.674;2023-03-18T05:20:37;96848.72;;;8.10;61.82
71917;BME280;59793;46.506;6.674;2023-03-18T05:23:02;96850.81;;;8.17;61.37
71917;BME280;59793;46.506;6.674;2023-03-18T05:25:28;96864.66;;;8.29;61.71
71917;BME280;59793;46.506;6.674;2023-03-18T05:27:54;96859.09;;;8.31;61.68
71917;BME280;59793;46.506;6.674;2023-03-18T05:30:19;96872.88;;;8.40;61.45
71917;BME280;59793;46.506;6.674;2023-03-18T05:32:45;96850.78;;;8.29;61.31
71917;BME280;59793;46.506;6.674;2023-03-18T05:35:10;96872.22;;;8.31;61.28
71917;BME280;59793;46.506;6.674;2023-03-18T05:37:36;96854.31;;;8.21;61.03
71917;BME280;59793;46.506;6.674;2023-03-18T05:40:03;96883.69;;;8.51;60.72
71917;BME280;59793;46.506;6.674;2023-03-18T05:42:29;96881.06;;;8.51;61.07
71917;BME280;59793;46.506;6.674;2023-03-18T05:44:54;96851.66;;;8.33;60.99
71917;BME280;59793;46.506;6.674;2023-03-18T05:47:21;96845.56;;;8.41;60.63
71917;BME280;59793;46.506;6.674;2023-03-18T05:49:46;96887.84;;;8.64;60.45
71917;BME280;59793;46.506;6.674;2023-03-18T05:52:12;96882.50;;;8.60;60.65
71917;BME280;59793;46.506;6.674;2023-03-18T05:54:38;96892.34;;;8.64;60.51
71917;BME280;59793;46.506;6.674;2023-03-18T05:57:04;96868.91;;;8.58;59.92
71917;BME280;59793;46.506;6.674;2023-03-18T05:59:29;96865.31;;;8.63;59.59
71917;BME280;59793;46.506;6.674;2023-03-18T06:01:55;96858.63;;;8.66;59.67
71917;BME280;59793;46.506;6.674;2023-03-18T06:04:21;96867.28;;;8.66;60.08
71917;BME280;59793;46.506;6.674;2023-03-18T06:06:46;96860.38;;;8.61;60.19
71917;BME280;59793;46.506;6.674;2023-03-18T06:09:13;96883.09;;;8.82;59.81
71917;BME280;59793;46.506;6.674;2023-03-18T06:11:39;96878.09;;;8.77;60.13
71917;BME280;59793;46.506;6.674;2023-03-18T06:14:05;96870.88;;;8.74;60.41
71917;BME280;59793;46.506;6.674;2023-03-18T06:16:32;96890.16;;;8.94;60.04
71917;BME280;59793;46.506;6.674;2023-03-18T06:18:59;96867.63;;;8.93;59.68
71917;BME280;59793;46.506;6.674;2023-03-18T06:21:25;96869.69;;;8.99;59.56
71917;BME280;59793;46.506;6.674;2023-03-18T06:23:52;96850.44;;;8.95;59.51
71917;BME280;59793;46.506;6.674;2023-03-18T06:26:18;96889.22;;;9.14;59.94
71917;BME280;59793;46.506;6.674;2023-03-18T06:28:43;96869.88;;;9.06;60.45
71917;BME280;59793;46.506;6.674;2023-03-18T06:31:10;96898.63;;;9.43;59.61
71917;BME280;59793;46.506;6.674;2023-03-18T06:33:35;96866.56;;;9.38;58.70
71917;BME280;59793;46.506;6.674;2023-03-18T06:36:02;96888.91;;;9.60;59.05
71917;BME280;59793;46.506;6.674;2023-03-18T06:38:28;96878.56;;;9.51;59.34
71917;BME280;59793;46.506;6.674;2023-03-18T06:40:54;96882.50;;;9.73;58.90
71917;BME280;59793;46.506;6.674;2023-03-18T06:43:20;96885.28;;;9.80;58.66
71917;BME280;59793;46.506;6.674;2023-03-18T06:45:47;96881.31;;;9.86;58.61
71917;BME280;59793;46.506;6.674;2023-03-18T06:48:12;96893.78;;;10.05;58.50
71917;BME280;59793;46.506;6.674;2023-03-18T06:50:38;96907.53;;;10.30;58.16
71917;BME280;59793;46.506;6.674;2023-03-18T06:53:05;96893.03;;;10.36;57.63
71917;BME280;59793;46.506;6.674;2023-03-18T06:55:31;96869.31;;;10.36;58.33
71917;BME280;59793;46.506;6.674;2023-03-18T06:57:56;96892.19;;;10.67;58.17
71917;BME280;59793;46.506;6.674;2023-03-18T07:00:23;96903.88;;;10.86;57.61
71917;BME280;59793;46.506;6.674;2023-03-18T07:02:49;96875.88;;;10.81;57.26
71917;BME280;59793;46.506;6.674;2023-03-18T07:05:15;96898.94;;;11.04;57.23
71917;BME280;59793;46.506;6.674;2023-03-18T07:07:41;96902.56;;;11.15;57.58
71917;BME280;59793;46.506;6.674;2023-03-18T07:10:08;96919.34;;;11.26;57.44
71917;BME280;59793;46.506;6.674;2023-03-18T07:12:34;96906.44;;;11.21;57.31
71917;BME280;59793;46.506;6.674;2023-03-18T07:15:01;96888.13;;;11.09;55.42
71917;BME280;59793;46.506;6.674;2023-03-18T07:17:26;96870.63;;;11.00;54.63
71917;BME280;59793;46.506;6.674;2023-03-18T07:19:52;96922.34;;;11.24;55.18
71917;BME280;59793;46.506;6.674;2023-03-18T07:22:17;96923.22;;;11.32;55.03
71917;BME280;59793;46.506;6.674;2023-03-18T07:24:43;96901.06;;;11.37;55.09
71917;BME280;59793;46.506;6.674;2023-03-18T07:27:10;96925.38;;;11.46;57.58
71917;BME280;59793;46.506;6.674;2023-03-18T07:29:37;96920.03;;;11.42;57.94
71917;BME280;59793;46.506;6.674;2023-03-18T07:32:03;96929.44;;;11.63;57.76
71917;BME280;59793;46.506;6.674;2023-03-18T07:34:28;96926.84;;;11.05;59.11
71917;BME280;59793;46.506;6.674;2023-03-18T07:36:55;96925.25;;;11.39;58.63
71917;BME280;59793;46.506;6.674;2023-03-18T07:39:20;96910.38;;;11.50;57.01
71917;BME280;59793;46.506;6.674;2023-03-18T07:41:46;96939.88;;;11.36;56.73
71917;BME280;59793;46.506;6.674;2023-03-18T07:44:13;96943.09;;;11.68;56.43
71917;BME280;59793;46.506;6.674;2023-03-18T07:46:39;96937.53;;;11.93;56.20
71917;BME280;59793;46.506;6.674;2023-03-18T07:49:05;96937.34;;;12.28;55.20
71917;BME280;59793;46.506;6.674;2023-03-18T07:51:31;96906.66;;;12.47;54.62
71917;BME280;59793;46.506;6.674;2023-03-18T07:53:56;96926.28;;;12.46;53.89
71917;BME280;59793;46.506;6.674;2023-03-18T07:56:22;96935.06;;;12.27;55.20
71917;BME280;59793;46.506;6.674;2023-03-18T07:58:48;96924.78;;;12.44;53.71
71917;BME280;59793;46.506;6.674;2023-03-18T08:01:13;96918.72;;;12.44;53.62
71917;BME280;59793;46.506;6.674;2023-03-18T08:03:43;96948.16;;;12.69;53.94
71917;BME280;59793;46.506;6.674;2023-03-18T08:06:08;96911.56;;;12.44;53.49
71917;BME280;59793;46.506;6.674;2023-03-18T08:08:36;96913.56;;;12.51;52.71
71917;BME280;59793;46.506;6.674;2023-03-18T08:11:01;96923.69;;;12.49;53.05
71917;BME280;59793;46.506;6.674;2023-03-18T08:13:27;96948.69;;;12.82;53.58
71917;BME280;59793;46.506;6.674;2023-03-18T08:15:53;96921.97;;;12.87;52.58
71917;BME280;59793;46.506;6.674;2023-03-18T08:18:18;96945.41;;;13.19;51.61
71917;BME280;59793;46.506;6.674;2023-03-18T08:20:44;96906.63;;;13.00;52.57
71917;BME280;59793;46.506;6.674;2023-03-18T08:23:10;96960.72;;;13.32;52.12
71917;BME280;59793;46.506;6.674;2023-03-18T08:25:35;96932.22;;;13.22;51.94
71917;BME280;59793;46.506;6.674;2023-03-18T08:28:02;96936.38;;;13.23;52.94
71917;BME280;59793;46.506;6.674;2023-03-18T08:30:27;96907.78;;;13.02;50.56
71917;BME280;59793;46.506;6.674;2023-03-18T08:32:54;96935.41;;;13.05;51.75
71917;BME280;59793;46.506;6.674;2023-03-18T08:35:21;96930.56;;;12.80;51.93
71917;BME280;59793;46.506;6.674;2023-03-18T08:37:47;96945.13;;;12.97;52.25
71917;BME280;59793;46.506;6.674;2023-03-18T08:40:13;96941.94;;;12.84;52.04
71917;BME280;59793;46.506;6.674;2023-03-18T08:42:38;96947.59;;;12.56;53.03
71917;BME280;59793;46.506;6.674;2023-03-18T08:45:04;96954.03;;;12.85;52.50
71917;BME280;59793;46.506;6.674;2023-03-18T08:47:30;96964.31;;;12.90;52.29
71917;BME280;59793;46.506;6.674;2023-03-18T08:49:55;96961.75;;;12.98;52.27
71917;BME280;59793;46.506;6.674;2023-03-18T08:52:21;96937.19;;;12.97;53.66
71917;BME280;59793;46.506;6.674;2023-03-18T08:54:47;96923.81;;;13.47;52.94
71917;BME280;59793;46.506;6.674;2023-03-18T08:57:14;96967.16;;;13.69;51.45
71917;BME280;59793;46.506;6.674;2023-03-18T08:59:40;96923.78;;;13.13;51.99
71917;BME280;59793;46.506;6.674;2023-03-18T09:02:06;96942.34;;;13.47;51.77
71917;BME280;59793;46.506;6.674;2023-03-18T09:04:32;96963.53;;;13.84;48.97
71917;BME280;59793;46.506;6.674;2023-03-18T09:06:57;96906.56;;;12.96;50.31
71917;BME280;59793;46.506;6.674;2023-03-18T09:09:24;96931.84;;;13.54;50.42
71917;BME280;59793;46.506;6.674;2023-03-18T09:11:50;96929.25;;;14.02;49.33
71917;BME280;59793;46.506;6.674;2023-03-18T09:14:15;96913.94;;;14.25;48.35
71917;BME280;59793;46.506;6.674;2023-03-18T09:16:41;96912.50;;;14.35;48.07
71917;BME280;59793;46.506;6.674;2023-03-18T09:19:06;96905.31;;;14.35;47.15
71917;BME280;59793;46.506;6.674;2023-03-18T09:21:32;96904.69;;;14.53;47.46
71917;BME280;59793;46.506;6.674;2023-03-18T09:23:57;96924.81;;;14.65;46.35
71917;BME280;59793;46.506;6.674;2023-03-18T09:26:23;96923.44;;;14.89;46.76
71917;BME280;59793;46.506;6.674;2023-03-18T09:28:49;96923.53;;;15.06;47.09
71917;BME280;59793;46.506;6.674;2023-03-18T09:31:14;96911.19;;;14.70;46.16
71917;BME280;59793;46.506;6.674;2023-03-18T09:33:40;96909.91;;;14.42;46.01
71917;BME280;59793;46.506;6.674;2023-03-18T09:36:07;96899.44;;;14.12;45.96
71917;BME280;59793;46.506;6.674;2023-03-18T09:38:33;96897.94;;;14.11;47.07
71917;BME280;59793;46.506;6.674;2023-03-18T09:54:38;96919.34;;;14.98;44.93
71917;BME280;59793;46.506;6.674;2023-03-18T09:57:11;96903.13;;;15.21;43.25
71917;BME280;59793;46.506;6.674;2023-03-18T09:59:44;96891.81;;;15.46;45.12
71917;BME280;59793;46.506;6.674;2023-03-18T10:02:18;96879.69;;;15.59;41.95
71917;BME280;59793;46.506;6.674;2023-03-18T10:04:52;96903.28;;;15.82;44.78
71917;BME280;59793;46.506;6.674;2023-03-18T10:07:22;96902.75;;;15.26;42.81
71917;BME280;59793;46.506;6.674;2023-03-18T10:10:01;96881.94;;;15.46;41.83
71917;BME280;59793;46.506;6.674;2023-03-18T10:12:33;96907.31;;;15.29;41.63
71917;BME280;59793;46.506;6.674;2023-03-18T10:15:13;96913.13;;;15.74;41.89
71917;BME280;59793;46.506;6.674;2023-03-18T10:17:44;96882.03;;;15.86;42.10
71917;BME280;59793;46.506;6.674;2023-03-18T10:20:19;96874.38;;;15.56;41.49
71917;BME280;59793;46.506;6.674;2023-03-18T10:22:56;96886.56;;;15.74;42.78
71917;BME280;59793;46.506;6.674;2023-03-18T10:36:21;96908.66;;;14.84;44.45
71917;BME280;59793;46.506;6.674;2023-03-18T10:38:48;96915.53;;;14.96;44.68
71917;BME280;59793;46.506;6.674;2023-03-18T10:41:16;96915.06;;;15.88;44.00
71917;BME280;59793;46.506;6.674;2023-03-18T10:43:45;96907.06;;;15.74;43.14
71917;BME280;59793;46.506;6.674;2023-03-18T10:46:14;96884.28;;;16.48;42.06
71917;BME280;59793;46.506;6.674;2023-03-18T10:51:28;96884.28;;;16.34;44.18
71917;BME280;59793;46.506;6.674;2023-03-18T10:54:03;96902.16;;;16.26;43.36
71917;BME280;59793;46.506;6.674;2023-03-18T10:56:32;96908.59;;;16.36;42.41
71917;BME280;59793;46.506;6.674;2023-03-18T10:58:59;96869.78;;;16.63;39.80
71917;BME280;59793;46.506;6.674;2023-03-18T11:01:27;96867.22;;;16.10;42.26
71917;BME280;59793;46.506;6.674;2023-03-18T11:03:55;96910.09;;;16.62;41.33
71917;BME280;59793;46.506;6.674;2023-03-18T11:06:47;96901.75;;;15.88;42.80
71917;BME280;59793;46.506;6.674;2023-03-18T11:09:21;96892.91;;;15.23;43.80
71917;BME280;59793;46.506;6.674;2023-03-18T11:11:49;96889.56;;;15.59;43.56
71917;BME280;59793;46.506;6.674;2023-03-18T11:14:21;96912.41;;;16.24;41.92
71917;BME280;59793;46.506;6.674;2023-03-18T11:16:57;96909.34;;;16.00;41.61
71917;BME280;59793;46.506;6.674;2023-03-18T11:19:38;96908.22;;;15.73;44.26
71917;BME280;59793;46.506;6.674;2023-03-18T11:22:26;96876.34;;;15.98;42.70
71917;BME280;59793;46.506;6.674;2023-03-18T11:25:11;96909.72;;;16.45;41.93
71917;BME280;59793;46.506;6.674;2023-03-18T11:27:38;96910.84;;;16.77;40.69
71917;BME280;59793;46.506;6.674;2023-03-18T11:30:23;96898.59;;;17.01;39.20
71917;BME280;59793;46.506;6.674;2023-03-18T11:35:52;96891.91;;;17.44;38.56
71917;BME280;59793;46.506;6.674;2023-03-18T11:40:51;96860.00;;;15.92;39.98
71917;BME280;59793;46.506;6.674;2023-03-18T11:43:21;96884.25;;;16.55;40.72
71917;BME280;59793;46.506;6.674;2023-03-18T11:46:00;96888.44;;;16.49;40.80
71917;BME280;59793;46.506;6.674;2023-03-18T11:48:35;96880.13;;;16.36;40.87
71917;BME280;59793;46.506;6.674;2023-03-18T11:53:41;96875.59;;;15.83;42.53
71917;BME280;59793;46.506;6.674;2023-03-18T11:56:34;96885.34;;;15.40;43.47
71917;BME280;59793;46.506;6.674;2023-03-18T11:59:15;96872.38;;;15.13;43.18
71917;BME280;59793;46.506;6.674;2023-03-18T12:07:43;96874.50;;;14.75;44.07
71917;BME280;59793;46.506;6.674;2023-03-18T12:10:35;96866.44;;;14.02;45.36
71917;BME280;59793;46.506;6.674;2023-03-18T12:20:51;96857.34;;;15.82;41.50
71917;BME280;59793;46.506;6.674;2023-03-18T12:26:14;96847.88;;;15.95;42.44
71917;BME280;59793;46.506;6.674;2023-03-18T12:42:11;96846.63;;;17.48;38.99
71917;BME280;59793;46.506;6.674;2023-03-18T12:45:05;96833.56;;;18.17;37.33
71917;BME280;59793;46.506;6.674;2023-03-18T12:50:15;96841.91;;;18.56;36.31
71917;BME280;59793;46.506;6.674;2023-03-18T12:53:02;96823.50;;;18.66;35.92
71917;BME280;59793;46.506;6.674;2023-03-18T12:55:49;96835.59;;;17.98;36.34
71917;BME280;59793;46.506;6.674;2023-03-18T12:58:23;96821.13;;;18.75;35.89
71917;BME280;59793;46.506;6.674;2023-03-18T13:01:02;96832.34;;;18.93;35.58
71917;BME280;59793;46.506;6.674;2023-03-18T13:03:37;96829.19;;;18.71;35.44
71917;BME280;59793;46.506;6.674;2023-03-18T13:06:36;96823.81;;;18.37;36.39
71917;BME280;59793;46.506;6.674;2023-03-18T13:12:29;96825.34;;;17.97;35.29
71917;BME280;59793;46.506;6.674;2023-03-18T13:14:59;96822.63;;;17.48;36.22
71917;BME280;59793;46.506;6.674;2023-03-18T13:17:33;96828.03;;;17.41;36.60
71917;BME280;59793;46.506;6.674;2023-03-18T13:20:27;96828.53;;;17.22;36.47
71917;BME280;59793;46.506;6.674;2023-03-18T13:39:37;96822.72;;;17.93;36.53
71917;BME280;59793;46.506;6.674;2023-03-18T13:42:29;96820.97;;;18.89;34.46
71917;BME280;59793;46.506;6.674;2023-03-18T13:47:54;96810.47;;;17.99;34.62
71917;BME280;59793;46.506;6.674;2023-03-18T13:52:47;96787.25;;;17.51;34.65
71917;BME280;59793;46.506;6.674;2023-03-18T13:55:26;96800.06;;;17.11;34.90
71917;BME280;59793;46.506;6.674;2023-03-18T13:57:55;96811.03;;;17.20;35.68
71917;BME280;59793;46.506;6.674;2023-03-18T14:00:28;96805.44;;;17.04;34.18
71917;BME280;59793;46.506;6.674;2023-03-18T14:03:05;96804.34;;;16.91;34.71
71917;BME280;59793;46.506;6.674;2023-03-18T14:05:38;96786.56;;;16.66;35.26
71917;BME280;59793;46.506;6.674;2023-03-18T14:13:57;96794.16;;;16.79;35.35
71917;BME280;59793;46.506;6.674;2023-03-18T14:19:24;96782.19;;;17.12;34.80
71917;BME280;59793;46.506;6.674;2023-03-18T14:22:12;96776.63;;;17.44;34.24
71917;BME280;59793;46.506;6.674;2023-03-18T14:24:39;96745.44;;;17.44;34.18
71917;BME280;59793;46.506;6.674;2023-03-18T14:29:37;96793.16;;;17.77;39.90
71917;BME280;59793;46.506;6.674;2023-03-18T14:32:05;96793.19;;;17.69;41.10
71917;BME280;59793;46.506;6.674;2023-03-18T14:34:54;96792.91;;;17.57;39.82
71917;BME280;59793;46.506;6.674;2023-03-18T14:37:25;96788.84;;;17.38;41.46
71917;BME280;59793;46.506;6.674;2023-03-18T14:39:53;96762.75;;;17.18;41.83
71917;BME280;59793;46.506;6.674;2023-03-18T14:42:28;96781.03;;;17.13;41.14
71917;BME280;59793;46.506;6.674;2023-03-18T14:45:03;96765.25;;;16.81;42.81
71917;BME280;59793;46.506;6.674;2023-03-18T14:47:42;96777.81;;;16.69;42.66
71917;BME280;59793;46.506;6.674;2023-03-18T14:52:41;96769.47;;;16.60;42.17
71917;BME280;59793;46.506;6.674;2023-03-18T14:55:15;96732.66;;;16.55;41.34
71917;BME280;59793;46.506;6.674;2023-03-18T14:57:43;96760.28;;;16.86;40.70
71917;BME280;59793;46.506;6.674;2023-03-18T15:00:13;96761.84;;;16.77;41.54
71917;BME280;59793;46.506;6.674;2023-03-18T15:02:39;96754.31;;;16.57;41.78
71917;BME280;59793;46.506;6.674;2023-03-18T15:05:05;96761.13;;;16.65;41.88